Time;durP1;ratioP1;P1;durP2;ratioP2;P2;SDS_P1;SDS_P2;PMS_P1;PMS_P2;Temp;Humidity;BMP_temperature;BMP_pressure;BME280_temperature;BME280_humidity;BME280_pressure;Samples;Min_cycle;Max_cycle;Signal;HPM_P1;HPM_P2
2024/01/11 07:49:10;;;;;;;61.00;25.52;;;;;;;;;;2071812;27;21097;-58
2024/01/11 07:50:12;;;;;;;69.90;28.92;;;;;;;;;;2065096;28;20384;-59
2024/01/11 07:53:08;;;;;;;58.53;27.20;;;;;;;;;;2098183;27;20543;-58
2024/01/11 07:54:09;;;;;;;67.90;29.20;;;;;;;;;;2084396;28;20228;-58
2024/01/11 07:55:12;;;;;;;63.17;26.63;;;;;;;;;;2078472;28;20595;-58
2024/01/11 07:56:14;;;;;;;57.72;26.00;;;;;;;;;;2082120;28;20235;-58
2024/01/11 07:57:15;;;;;;;60.75;27.52;;;;;;;;;;2082598;28;20328;-58
2024/01/11 07:58:16;;;;;;;61.50;27.80;;;;;;;;;;2079930;28;20290;-59
2024/01/11 07:59:18;;;;;;;62.03;27.25;;;;;;;;;;2073705;28;20283;-58
2024/01/11 08:00:19;;;;;;;58.55;27.50;;;;;;;;;;2073856;28;20611;-58
2024/01/11 08:01:21;;;;;;;64.82;27.92;;;;;;;;;;2073173;28;20221;-59
2024/01/11 08:02:23;;;;;;;56.63;27.75;;;;;;;;;;2073043;28;20233;-58
2024/01/11 08:03:24;;;;;;;54.78;26.00;;;;;;;;;;2072758;28;20727;-58
2024/01/11 08:04:25;;;;;;;54.83;25.55;;;;;;;;;;2072075;28;20318;-58
2024/01/11 08:05:27;;;;;;;60.80;28.13;;;;;;;;;;2071380;28;20685;-58
2024/01/11 08:06:28;;;;;;;64.15;25.52;;;;;;;;;;2072610;28;20580;-58
2024/01/11 08:07:30;;;;;;;53.97;25.02;;;;;;;;;;2074027;28;20763;-59
2024/01/11 08:08:31;;;;;;;53.40;24.90;;;;;;;;;;2069684;28;20193;-59
2024/01/11 08:09:33;;;;;;;52.88;25.80;;;;;;;;;;2070482;28;20695;-58
2024/01/11 08:10:34;;;;;;;52.40;25.83;;;;;;;;;;2073150;28;20201;-57
2024/01/11 08:11:35;;;;;;;51.38;24.05;;;;;;;;;;2072626;28;20189;-57
2024/01/11 08:12:40;;;;;;;51.45;24.35;;;;;;;;;;2074050;28;20217;-59
2024/01/11 08:13:41;;;;;;;57.42;26.70;;;;;;;;;;2073296;28;23635;-60
2024/01/11 08:14:42;;;;;;;56.58;26.55;;;;;;;;;;2073578;28;20193;-60
2024/01/11 08:15:44;;;;;;;64.55;26.73;;;;;;;;;;2074413;28;20199;-60
2024/01/11 08:16:45;;;;;;;54.50;27.10;;;;;;;;;;2070257;28;20251;-61
2024/01/11 08:17:47;;;;;;;61.42;27.35;;;;;;;;;;2071092;28;20624;-60
2024/01/11 08:18:49;;;;;;;54.40;25.83;;;;;;;;;;2072069;28;20229;-60
2024/01/11 08:19:51;;;;;;;51.47;24.42;;;;;;;;;;2073431;28;20260;-61
2024/01/11 08:20:52;;;;;;;57.55;26.30;;;;;;;;;;2073674;28;20197;-61
2024/01/11 08:21:56;;;;;;;47.15;22.33;;;;;;;;;;2073625;28;20280;-61
2024/01/11 08:22:58;;;;;;;53.67;24.65;;;;;;;;;;2074019;28;20197;-61
2024/01/11 08:23:59;;;;;;;49.28;24.65;;;;;;;;;;2072378;28;20237;-61
2024/01/11 08:25:04;;;;;;;51.88;27.20;;;;;;;;;;2072293;28;20614;-61
2024/01/11 08:26:06;;;;;;;59.13;28.13;;;;;;;;;;2072990;28;20202;-61
2024/01/11 08:27:07;;;;;;;52.47;26.50;;;;;;;;;;2070083;28;20205;-61
2024/01/11 08:28:09;;;;;;;58.53;28.85;;;;;;;;;;2071082;28;20256;-61
2024/01/11 08:29:10;;;;;;;53.95;25.58;;;;;;;;;;2072756;28;20231;-61
2024/01/11 08:30:12;;;;;;;50.15;24.98;;;;;;;;;;2074383;28;20236;-61
2024/01/11 08:31:14;;;;;;;52.70;25.40;;;;;;;;;;2074039;28;20929;-62
2024/01/11 08:32:16;;;;;;;57.55;25.17;;;;;;;;;;2073270;28;20251;-61
2024/01/11 08:33:31;;;;;;;52.45;25.80;;;;;;;;;;2072125;28;20700;-60
2024/01/11 08:34:33;;;;;;;45.25;25.15;;;;;;;;;;2073368;28;20209;-61
2024/01/11 08:35:35;;;;;;;53.08;23.95;;;;;;;;;;2074653;28;20204;-60
2024/01/11 08:36:38;;;;;;;49.60;25.13;;;;;;;;;;2074659;28;20977;-61
2024/01/11 08:37:39;;;;;;;47.88;25.30;;;;;;;;;;2075347;28;20562;-61
2024/01/11 08:38:41;;;;;;;46.53;24.17;;;;;;;;;;2071430;28;20265;-61
2024/01/11 08:39:43;;;;;;;49.33;24.83;;;;;;;;;;2073495;28;20198;-61
2024/01/11 08:40:44;;;;;;;51.85;25.05;;;;;;;;;;2071910;28;20194;-58
2024/01/11 08:41:45;;;;;;;56.53;26.85;;;;;;;;;;2070961;28;20198;-58
2024/01/11 08:42:47;;;;;;;53.70;24.60;;;;;;;;;;2071558;28;20194;-59
2024/01/11 08:43:48;;;;;;;50.80;25.42;;;;;;;;;;2071753;28;20225;-59
2024/01/11 08:44:50;;;;;;;46.67;24.65;;;;;;;;;;2073867;28;20709;-59
2024/01/11 08:45:51;;;;;;;50.53;24.77;;;;;;;;;;2071106;28;20286;-59
2024/01/11 08:46:52;;;;;;;53.28;26.65;;;;;;;;;;2073110;28;20279;-60
2024/01/11 08:47:54;;;;;;;53.03;27.05;;;;;;;;;;2072760;28;20232;-61
2024/01/11 08:48:56;;;;;;;52.55;29.05;;;;;;;;;;2073478;28;20623;-61
2024/01/11 08:49:58;;;;;;;49.63;25.10;;;;;;;;;;2074065;28;20699;-62
2024/01/11 08:50:59;;;;;;;52.42;26.30;;;;;;;;;;2069855;28;20199;-61
2024/01/11 08:52:02;;;;;;;47.65;26.30;;;;;;;;;;2070628;28;20717;-62
2024/01/11 08:53:04;;;;;;;52.47;26.15;;;;;;;;;;2074042;28;20253;-60
2024/01/11 08:54:08;;;;;;;53.25;25.38;;;;;;;;;;2074314;28;20220;-60
2024/01/11 08:55:12;;;;;;;52.85;27.95;;;;;;;;;;2076409;28;20251;-61
2024/01/11 08:56:16;;;;;;;58.80;29.02;;;;;;;;;;2070818;28;20620;-67
2024/01/11 08:57:17;;;;;;;52.95;26.35;;;;;;;;;;2072389;28;20280;-61
2024/01/11 08:58:18;;;;;;;55.95;26.77;;;;;;;;;;2073393;28;20229;-62
2024/01/11 08:59:24;;;;;;;47.15;26.85;;;;;;;;;;2072383;28;20237;-62
2024/01/11 09:00:26;;;;;;;54.28;26.23;;;;;;;;;;2073775;28;20197;-62
2024/01/11 09:01:28;;;;;;;55.97;26.98;;;;;;;;;;2074164;28;20707;-62
2024/01/11 09:02:29;;;;;;;47.95;25.92;;;;;;;;;;2073793;28;20194;-62
2024/01/11 09:03:30;;;;;;;49.47;26.55;;;;;;;;;;2072299;28;20267;-62
2024/01/11 09:04:33;;;;;;;50.80;27.95;;;;;;;;;;2068344;28;20206;-63
2024/01/11 09:05:34;;;;;;;48.97;25.77;;;;;;;;;;2069757;28;20281;-63
2024/01/11 09:06:36;;;;;;;52.60;26.77;;;;;;;;;;2068013;28;20210;-63
2024/01/11 09:07:37;;;;;;;50.10;26.60;;;;;;;;;;2068222;28;20205;-63
2024/01/11 09:08:40;;;;;;;56.55;31.10;;;;;;;;;;2063934;28;20202;-63
2024/01/11 09:09:42;;;;;;;53.72;27.45;;;;;;;;;;2068394;28;20202;-64
2024/01/11 09:10:54;;;;;;;53.38;27.42;;;;;;;;;;2067685;28;20289;-64
2024/01/11 09:11:55;;;;;;;55.80;27.98;;;;;;;;;;2067791;28;20198;-64
2024/01/11 09:12:56;;;;;;;47.83;27.10;;;;;;;;;;2067019;28;20207;-64
2024/01/11 09:13:58;;;;;;;68.32;27.88;;;;;;;;;;2065621;28;20216;-64
2024/01/11 09:14:59;;;;;;;53.50;28.10;;;;;;;;;;2064577;28;20203;-65
2024/01/11 09:16:00;;;;;;;56.47;26.73;;;;;;;;;;2066023;28;20278;-65
2024/01/11 09:17:02;;;;;;;53.78;27.58;;;;;;;;;;2070266;28;20195;-60
2024/01/11 09:18:03;;;;;;;61.40;27.00;;;;;;;;;;2066489;28;20202;-60
2024/01/11 09:19:05;;;;;;;56.50;27.80;;;;;;;;;;2066861;28;20219;-60
2024/01/11 09:20:07;;;;;;;55.13;29.48;;;;;;;;;;2066474;28;20207;-60
2024/01/11 09:21:08;;;;;;;53.88;29.73;;;;;;;;;;2067838;28;20198;-60
2024/01/11 09:22:10;;;;;;;57.00;27.48;;;;;;;;;;2066138;28;20206;-60
2024/01/11 09:23:11;;;;;;;58.67;27.55;;;;;;;;;;2066598;28;20613;-60
2024/01/11 09:24:13;;;;;;;59.13;28.35;;;;;;;;;;2063972;28;20703;-60
2024/01/11 09:25:15;;;;;;;54.47;30.20;;;;;;;;;;2064897;28;20912;-59
2024/01/11 09:26:16;;;;;;;71.18;35.05;;;;;;;;;;2066668;28;20287;-59
2024/01/11 09:27:17;;;;;;;83.57;40.85;;;;;;;;;;2069758;28;20197;-59
2024/01/11 09:28:19;;;;;;;92.30;38.92;;;;;;;;;;2068708;28;20195;-58
2024/01/11 09:29:20;;;;;;;85.40;40.60;;;;;;;;;;2068059;28;20696;-58
2024/01/11 09:30:21;;;;;;;83.80;40.28;;;;;;;;;;2068909;28;20197;-59
2024/01/11 09:31:23;;;;;;;82.53;41.47;;;;;;;;;;2067407;28;20202;-58
2024/01/11 09:32:25;;;;;;;79.47;38.33;;;;;;;;;;2067642;28;20190;-58
2024/01/11 09:33:27;;;;;;;69.68;36.30;;;;;;;;;;2066340;28;20248;-59
2024/01/11 09:34:29;;;;;;;76.63;36.45;;;;;;;;;;2068537;28;20314;-59
2024/01/11 09:35:30;;;;;;;72.88;36.83;;;;;;;;;;2069327;28;20205;-59
2024/01/11 09:36:33;;;;;;;77.80;37.13;;;;;;;;;;2067425;28;20195;-59
2024/01/11 09:37:34;;;;;;;72.00;37.33;;;;;;;;;;2064252;28;20192;-59
2024/01/11 09:38:35;;;;;;;85.78;36.63;;;;;;;;;;2063848;28;20200;-58
2024/01/11 09:39:37;;;;;;;62.10;34.65;;;;;;;;;;2068187;28;20820;-59
2024/01/11 09:40:38;;;;;;;66.18;32.90;;;;;;;;;;2067909;28;20195;-59
2024/01/11 09:41:43;;;;;;;62.72;34.35;;;;;;;;;;2068015;28;20299;-59
2024/01/11 09:42:44;;;;;;;58.20;30.40;;;;;;;;;;2069341;28;20232;-59
2024/01/11 09:43:47;;;;;;;57.55;29.70;;;;;;;;;;2068634;28;20224;-60
2024/01/11 09:44:49;;;;;;;63.40;30.95;;;;;;;;;;2066339;28;20196;-59
2024/01/11 09:45:51;;;;;;;57.70;32.05;;;;;;;;;;2067120;28;20212;-59
2024/01/11 09:46:53;;;;;;;69.85;35.88;;;;;;;;;;2068033;28;20205;-59
2024/01/11 09:47:54;;;;;;;66.70;34.70;;;;;;;;;;2064130;28;20752;-59
2024/01/11 09:48:57;;;;;;;77.13;35.40;;;;;;;;;;2064730;28;20444;-59
2024/01/11 09:49:58;;;;;;;65.60;34.30;;;;;;;;;;2065935;28;20195;-59
2024/01/11 09:51:02;;;;;;;65.70;34.30;;;;;;;;;;2067985;28;20208;-59
2024/01/11 09:52:04;;;;;;;68.45;37.10;;;;;;;;;;2068949;28;20239;-59
2024/01/11 09:53:07;;;;;;;61.55;32.28;;;;;;;;;;2063867;28;20219;-59
2024/01/11 09:54:10;;;;;;;54.13;30.65;;;;;;;;;;2064535;28;20251;-59
2024/01/11 09:55:13;;;;;;;51.80;29.90;;;;;;;;;;2068320;28;20258;-59
2024/01/11 09:56:16;;;;;;;53.15;27.85;;;;;;;;;;2068119;28;20258;-59
2024/01/11 09:57:25;;;;;;;48.03;27.25;;;;;;;;;;2066893;28;20194;-59
2024/01/11 09:58:30;;;;;;;50.22;28.42;;;;;;;;;;2068557;28;20232;-60
2024/01/11 09:59:32;;;;;;;60.38;29.02;;;;;;;;;;2067698;28;20649;-59
2024/01/11 10:00:34;;;;;;;48.33;27.02;;;;;;;;;;2068418;28;20290;-59
2024/01/11 10:01:35;;;;;;;46.35;25.27;;;;;;;;;;2067519;28;20206;-59
2024/01/11 10:02:37;;;;;;;51.45;28.27;;;;;;;;;;2066375;28;20240;-59
2024/01/11 10:03:41;;;;;;;63.72;30.25;;;;;;;;;;2065578;28;21098;-59
2024/01/11 10:04:43;;;;;;;56.90;30.55;;;;;;;;;;2066893;28;20202;-59
2024/01/11 10:05:44;;;;;;;59.47;28.75;;;;;;;;;;2067507;28;20552;-64
2024/01/11 10:06:47;;;;;;;57.17;29.08;;;;;;;;;;2064110;28;20250;-64
2024/01/11 10:07:49;;;;;;;59.08;27.92;;;;;;;;;;2064782;28;20213;-63
2024/01/11 10:08:50;;;;;;;46.95;27.17;;;;;;;;;;2055720;28;20286;-64
2024/01/11 10:09:52;;;;;;;46.65;27.08;;;;;;;;;;2065363;28;20822;-64
2024/01/11 10:10:54;;;;;;;46.88;26.65;;;;;;;;;;2071323;28;20719;-64
2024/01/11 10:11:55;;;;;;;48.85;25.77;;;;;;;;;;2071200;28;20237;-63
2024/01/11 10:12:57;;;;;;;47.83;27.35;;;;;;;;;;2067148;28;20297;-64
2024/01/11 10:14:00;;;;;;;47.45;25.65;;;;;;;;;;2067149;28;20226;-64
2024/01/11 10:15:09;;;;;;;45.42;26.35;;;;;;;;;;2066712;28;20205;-64
2024/01/11 10:16:15;;;;;;;48.70;26.98;;;;;;;;;;2062989;28;20222;-64
2024/01/11 10:17:16;;;;;;;45.63;26.35;;;;;;;;;;2067180;28;20194;-64
2024/01/11 10:18:23;;;;;;;52.75;26.88;;;;;;;;;;2066223;28;20252;-63
2024/01/11 10:19:25;;;;;;;49.90;27.77;;;;;;;;;;2069633;28;20198;-63
2024/01/11 10:20:29;;;;;;;55.05;28.52;;;;;;;;;;2067900;28;20245;-64
2024/01/11 10:21:31;;;;;;;52.17;27.95;;;;;;;;;;2063855;28;20233;-59
2024/01/11 10:22:33;;;;;;;45.22;25.65;;;;;;;;;;2064248;28;20285;-60
2024/01/11 10:23:38;;;;;;;53.92;26.63;;;;;;;;;;2067712;28;20281;-60
2024/01/11 10:24:40;;;;;;;47.35;27.50;;;;;;;;;;2066059;28;20661;-64
2024/01/11 10:25:42;;;;;;;56.17;28.40;;;;;;;;;;2065150;28;20689;-64
2024/01/11 10:26:43;;;;;;;48.60;26.17;;;;;;;;;;2067435;28;20194;-64
2024/01/11 10:27:51;;;;;;;45.47;27.13;;;;;;;;;;2067512;28;20274;-64
2024/01/11 10:28:52;;;;;;;51.53;27.60;;;;;;;;;;2066098;28;20219;-64
2024/01/11 10:29:55;;;;;;;48.03;28.13;;;;;;;;;;2065768;28;20194;-63
2024/01/11 10:30:56;;;;;;;59.15;27.55;;;;;;;;;;2066805;28;20229;-64
2024/01/11 10:31:58;;;;;;;49.92;27.58;;;;;;;;;;2067298;28;20202;-63
2024/01/11 10:32:59;;;;;;;49.38;27.52;;;;;;;;;;2063772;28;20198;-63
2024/01/11 10:34:01;;;;;;;53.90;28.33;;;;;;;;;;2064306;28;20840;-63
2024/01/11 10:35:04;;;;;;;55.30;29.08;;;;;;;;;;2063771;28;20201;-63
2024/01/11 10:36:07;;;;;;;53.22;27.58;;;;;;;;;;2066721;28;20199;-63
2024/01/11 10:37:10;;;;;;;54.95;27.10;;;;;;;;;;2066310;28;20214;-62
2024/01/11 10:38:13;;;;;;;49.28;27.92;;;;;;;;;;2065122;28;20238;-62
2024/01/11 10:39:15;;;;;;;46.85;28.13;;;;;;;;;;2067651;28;20223;-62
2024/01/11 10:40:20;;;;;;;49.75;26.38;;;;;;;;;;2067308;28;20227;-62
2024/01/11 10:41:22;;;;;;;54.78;28.00;;;;;;;;;;2066190;28;20298;-62
2024/01/11 10:42:26;;;;;;;50.17;26.90;;;;;;;;;;2068153;28;20602;-64
2024/01/11 10:43:28;;;;;;;55.00;29.35;;;;;;;;;;2066905;28;20564;-62
2024/01/11 10:44:32;;;;;;;49.28;27.52;;;;;;;;;;2067536;28;20194;-62
2024/01/11 10:45:38;;;;;;;63.42;27.30;;;;;;;;;;2067375;28;20727;-62
2024/01/11 10:46:41;;;;;;;58.75;28.70;;;;;;;;;;2063748;28;20554;-62
2024/01/11 10:47:48;;;;;;;48.95;27.35;;;;;;;;;;2064423;28;20598;-62
2024/01/11 10:48:53;;;;;;;46.88;26.20;;;;;;;;;;2066619;28;20871;-63
2024/01/11 10:49:56;;;;;;;49.05;26.10;;;;;;;;;;2069312;28;20225;-60
2024/01/11 10:51:00;;;;;;;41.35;25.42;;;;;;;;;;2066929;28;20285;-61
2024/01/11 10:52:06;;;;;;;58.42;28.15;;;;;;;;;;2071221;28;20247;-62
2024/01/11 10:53:19;;;;;;;54.08;29.13;;;;;;;;;;2070576;28;20714;-58
2024/01/11 10:54:21;;;;;;;55.60;30.17;;;;;;;;;;2066044;28;20227;-58
2024/01/11 10:55:23;;;;;;;58.55;31.02;;;;;;;;;;2067666;28;20670;-58
2024/01/11 10:56:25;;;;;;;56.72;30.52;;;;;;;;;;2065851;28;20194;-58
2024/01/11 10:57:28;;;;;;;64.75;33.40;;;;;;;;;;2066508;28;20199;-58
2024/01/11 10:58:30;;;;;;;52.22;30.38;;;;;;;;;;2063510;28;20207;-58
2024/01/11 10:59:31;;;;;;;60.35;33.10;;;;;;;;;;2065412;28;20219;-58
2024/01/11 11:00:34;;;;;;;53.30;30.55;;;;;;;;;;2065196;28;20224;-58
2024/01/11 11:01:37;;;;;;;59.75;31.13;;;;;;;;;;2065732;28;20238;-58
2024/01/11 11:02:39;;;;;;;52.15;28.50;;;;;;;;;;2066442;28;20256;-58
2024/01/11 11:03:42;;;;;;;57.50;29.27;;;;;;;;;;2065963;28;20337;-60
2024/01/11 11:04:45;;;;;;;53.05;28.40;;;;;;;;;;2067065;28;20197;-58
2024/01/11 11:05:50;;;;;;;47.53;28.10;;;;;;;;;;2069077;28;20206;-58
2024/01/11 11:06:55;;;;;;;55.10;28.77;;;;;;;;;;2066778;28;20194;-58
2024/01/11 11:07:57;;;;;;;57.05;29.83;;;;;;;;;;2065801;28;20290;-58
2024/01/11 11:08:59;;;;;;;63.88;31.58;;;;;;;;;;2064849;28;20218;-58
2024/01/11 11:10:01;;;;;;;50.50;29.23;;;;;;;;;;2063270;28;20245;-58
2024/01/11 11:11:06;;;;;;;57.65;30.45;;;;;;;;;;2064078;28;20202;-58
2024/01/11 11:12:08;;;;;;;57.05;30.35;;;;;;;;;;2066742;28;20198;-59
2024/01/11 11:13:11;;;;;;;57.55;30.27;;;;;;;;;;2066954;28;20233;-58
2024/01/11 11:14:14;;;;;;;57.58;28.88;;;;;;;;;;2072520;28;20217;-58
2024/01/11 11:15:16;;;;;;;60.40;30.58;;;;;;;;;;2072840;28;20643;-58
2024/01/11 11:16:18;;;;;;;58.40;32.50;;;;;;;;;;2065592;28;20193;-58
2024/01/11 11:17:19;;;;;;;55.40;30.58;;;;;;;;;;2066950;28;20244;-61
2024/01/11 11:18:21;;;;;;;56.83;30.23;;;;;;;;;;2067231;28;20197;-61
2024/01/11 11:19:22;;;;;;;58.05;32.53;;;;;;;;;;2062668;28;20225;-61
2024/01/11 11:20:24;;;;;;;56.08;30.98;;;;;;;;;;2064029;28;20205;-61
2024/01/11 11:21:26;;;;;;;65.28;31.42;;;;;;;;;;2068976;28;20685;-61
2024/01/11 11:22:27;;;;;;;60.60;29.77;;;;;;;;;;2068665;28;20189;-61
2024/01/11 11:23:29;;;;;;;66.25;31.40;;;;;;;;;;2065601;28;20807;-61
2024/01/11 11:24:30;;;;;;;60.88;30.45;;;;;;;;;;2067384;28;20205;-61
2024/01/11 11:25:32;;;;;;;55.70;29.70;;;;;;;;;;2063508;28;20194;-61
2024/01/11 11:26:33;;;;;;;74.80;32.38;;;;;;;;;;2063531;28;20256;-61
2024/01/11 11:27:35;;;;;;;57.67;30.85;;;;;;;;;;2067188;28;20234;-61
2024/01/11 11:28:36;;;;;;;67.88;31.35;;;;;;;;;;2062209;28;20198;-61
2024/01/11 11:29:38;;;;;;;61.38;30.75;;;;;;;;;;2066928;28;20646;-61
2024/01/11 11:30:41;;;;;;;61.58;31.23;;;;;;;;;;2067438;28;20230;-61
2024/01/11 11:31:43;;;;;;;58.60;31.08;;;;;;;;;;2065866;28;20750;-61
2024/01/11 11:32:45;;;;;;;65.00;31.45;;;;;;;;;;2066779;28;20244;-61
2024/01/11 11:33:48;;;;;;;58.10;31.40;;;;;;;;;;2066033;28;20313;-61
2024/01/11 11:34:52;;;;;;;62.65;32.42;;;;;;;;;;2068066;28;20289;-61
2024/01/11 11:35:57;;;;;;;53.50;29.70;;;;;;;;;;2066986;28;20205;-59
2024/01/11 11:36:58;;;;;;;59.55;29.00;;;;;;;;;;2065009;28;20194;-59
2024/01/11 11:37:59;;;;;;;61.10;31.83;;;;;;;;;;2065052;28;20194;-59
2024/01/11 11:39:01;;;;;;;62.25;30.80;;;;;;;;;;2065439;28;20709;-59
2024/01/11 11:40:05;;;;;;;62.42;30.30;;;;;;;;;;2069284;28;20194;-59
2024/01/11 11:41:07;;;;;;;55.40;30.38;;;;;;;;;;2069155;28;20669;-59
2024/01/11 11:42:09;;;;;;;58.47;30.48;;;;;;;;;;2068572;28;20338;-59
2024/01/11 11:43:11;;;;;;;65.05;29.60;;;;;;;;;;2067241;28;20195;-59
2024/01/11 11:44:15;;;;;;;66.45;30.90;;;;;;;;;;2066891;28;20253;-59
2024/01/11 11:45:24;;;;;;;60.35;31.30;;;;;;;;;;2068309;28;20289;-59
2024/01/11 11:46:26;;;;;;;60.88;30.67;;;;;;;;;;2065140;28;20237;-59
2024/01/11 11:47:33;;;;;;;58.30;29.55;;;;;;;;;;2062695;28;20669;-59
2024/01/11 11:48:35;;;;;;;54.88;29.83;;;;;;;;;;2059282;28;20196;-59
2024/01/11 11:49:55;;;;;;;55.72;29.45;;;;;;;;;;2067016;28;20244;-59
2024/01/11 11:51:07;;;;;;;58.45;29.65;;;;;;;;;;2067125;28;20280;-59
2024/01/11 11:52:13;;;;;;;53.17;28.75;;;;;;;;;;2066374;28;20285;-62
2024/01/11 11:53:16;;;;;;;60.08;30.63;;;;;;;;;;2064637;28;20222;-61
2024/01/11 11:54:18;;;;;;;54.45;29.90;;;;;;;;;;2062763;28;20222;-61
2024/01/11 11:55:20;;;;;;;61.88;30.90;;;;;;;;;;2064014;28;20304;-61
2024/01/11 11:56:22;;;;;;;58.60;30.75;;;;;;;;;;2066684;28;20197;-62
2024/01/11 11:57:24;;;;;;;57.83;30.10;;;;;;;;;;2065084;28;20637;-62
2024/01/11 11:58:34;;;;;;;56.53;29.45;;;;;;;;;;2063989;28;20205;-62
2024/01/11 11:59:36;;;;;;;57.35;30.30;;;;;;;;;;2066192;28;20201;-61
2024/01/11 12:00:38;;;;;;;62.22;30.65;;;;;;;;;;2066075;28;20197;-62
2024/01/11 12:01:40;;;;;;;63.38;32.15;;;;;;;;;;2065471;28;20776;-62
2024/01/11 12:02:41;;;;;;;51.25;29.52;;;;;;;;;;2066388;28;20205;-62
2024/01/11 12:03:48;;;;;;;60.83;30.30;;;;;;;;;;2063958;28;20198;-62
2024/01/11 12:04:53;;;;;;;62.15;31.67;;;;;;;;;;2068842;28;20225;-61
2024/01/11 12:05:55;;;;;;;60.35;30.00;;;;;;;;;;2067319;28;20197;-62
2024/01/11 12:06:57;;;;;;;57.03;30.67;;;;;;;;;;2067705;28;20331;-62
2024/01/11 12:07:58;;;;;;;59.08;29.63;;;;;;;;;;2063165;28;20213;-62
2024/01/11 12:08:59;;;;;;;55.83;29.27;;;;;;;;;;2066038;28;20257;-62
2024/01/11 12:10:01;;;;;;;58.15;29.38;;;;;;;;;;2065524;28;20201;-62
2024/01/11 12:11:03;;;;;;;58.63;30.58;;;;;;;;;;2066909;28;20287;-62
2024/01/11 12:12:04;;;;;;;53.17;30.15;;;;;;;;;;2066318;28;20269;-62
2024/01/11 12:13:16;;;;;;;58.80;29.48;;;;;;;;;;2066436;28;20206;-62
2024/01/11 12:14:17;;;;;;;55.25;29.77;;;;;;;;;;2064042;28;20244;-59
2024/01/11 12:15:18;;;;;;;59.03;28.98;;;;;;;;;;2063823;28;20222;-59
2024/01/11 12:16:20;;;;;;;61.65;30.70;;;;;;;;;;2067657;28;20650;-59
2024/01/11 12:17:21;;;;;;;59.65;29.48;;;;;;;;;;2068373;28;20193;-60
2024/01/11 12:18:23;;;;;;;59.63;30.73;;;;;;;;;;2069435;28;20284;-59
2024/01/11 12:19:25;;;;;;;52.05;30.13;;;;;;;;;;2064848;28;20225;-59
2024/01/11 12:20:28;;;;;;;52.83;28.55;;;;;;;;;;2066574;28;20858;-60
2024/01/11 12:21:30;;;;;;;55.00;28.58;;;;;;;;;;2066229;28;20225;-60
2024/01/11 12:22:32;;;;;;;58.97;28.92;;;;;;;;;;2065710;28;20253;-60
2024/01/11 12:23:34;;;;;;;50.97;28.73;;;;;;;;;;2065813;28;20199;-60
2024/01/11 12:24:36;;;;;;;55.85;29.02;;;;;;;;;;2066411;28;20197;-60
2024/01/11 12:25:38;;;;;;;52.50;25.35;;;;;;;;;;2063309;28;20199;-61
2024/01/11 12:26:39;;;;;;;49.13;25.08;;;;;;;;;;2063474;28;20199;-61
2024/01/11 12:27:41;;;;;;;47.05;25.05;;;;;;;;;;2065842;28;20597;-63
2024/01/11 12:28:43;;;;;;;52.00;26.20;;;;;;;;;;2070361;28;20201;-63
2024/01/11 12:29:46;;;;;;;48.17;26.55;;;;;;;;;;2070822;28;20198;-63
2024/01/11 12:30:59;;;;;;;51.63;25.17;;;;;;;;;;2066227;28;20248;-63
2024/01/11 12:32:00;;;;;;;44.05;25.10;;;;;;;;;;2066737;28;20246;-60
2024/01/11 12:33:02;;;;;;;49.03;25.85;;;;;;;;;;2065969;28;20812;-60
2024/01/11 12:34:05;;;;;;;57.85;27.48;;;;;;;;;;2067114;28;20224;-60
2024/01/11 12:35:06;;;;;;;48.10;24.80;;;;;;;;;;2065905;28;20489;-60
2024/01/11 12:36:08;;;;;;;46.45;26.92;;;;;;;;;;2066834;28;20644;-63
2024/01/11 12:37:10;;;;;;;44.42;25.50;;;;;;;;;;2065521;28;20203;-63
2024/01/11 12:38:11;;;;;;;47.92;25.13;;;;;;;;;;2063191;28;20201;-62
2024/01/11 12:39:13;;;;;;;50.00;27.35;;;;;;;;;;2063275;28;20245;-62
2024/01/11 12:40:14;;;;;;;45.70;25.70;;;;;;;;;;2068828;28;20699;-62
2024/01/11 12:41:16;;;;;;;48.65;26.08;;;;;;;;;;2067937;28;20335;-62
2024/01/11 12:42:17;;;;;;;48.42;25.85;;;;;;;;;;2068303;28;20238;-62
2024/01/11 12:43:19;;;;;;;48.58;25.45;;;;;;;;;;2067090;28;20209;-62
2024/01/11 12:44:21;;;;;;;51.95;28.05;;;;;;;;;;2067789;28;20246;-62
2024/01/11 12:45:22;;;;;;;49.97;26.48;;;;;;;;;;2068468;28;20199;-62
2024/01/11 12:46:24;;;;;;;46.90;27.60;;;;;;;;;;2066932;28;20337;-62
2024/01/11 12:47:25;;;;;;;49.85;26.83;;;;;;;;;;2065516;28;20251;-62
2024/01/11 12:48:27;;;;;;;44.80;26.00;;;;;;;;;;2066902;28;20198;-62
2024/01/11 12:49:28;;;;;;;45.15;26.25;;;;;;;;;;2066390;28;20225;-62
2024/01/11 12:50:33;;;;;;;57.92;27.23;;;;;;;;;;2066786;28;20314;-62
2024/01/11 12:51:35;;;;;;;49.97;26.65;;;;;;;;;;2066064;28;20220;-62
2024/01/11 12:52:37;;;;;;;44.97;28.27;;;;;;;;;;2066518;28;20239;-62
2024/01/11 12:53:38;;;;;;;44.97;25.70;;;;;;;;;;2065789;28;20218;-63
2024/01/11 12:54:40;;;;;;;45.72;26.48;;;;;;;;;;2064891;28;20195;-63
2024/01/11 12:55:41;;;;;;;48.15;24.77;;;;;;;;;;2067421;28;20716;-62
2024/01/11 12:56:57;;;;;;;47.20;26.30;;;;;;;;;;2069927;28;20198;-62
2024/01/11 12:58:06;;;;;;;46.70;26.67;;;;;;;;;;2067128;28;20229;-62
2024/01/11 12:59:08;;;;;;;51.00;26.13;;;;;;;;;;2066210;28;20221;-62
2024/01/11 13:00:10;;;;;;;50.92;26.55;;;;;;;;;;2067419;28;20233;-62
2024/01/11 13:01:12;;;;;;;47.10;25.45;;;;;;;;;;2068014;28;20193;-63
2024/01/11 13:02:16;;;;;;;50.53;28.48;;;;;;;;;;2068351;28;20248;-60
2024/01/11 13:03:20;;;;;;;46.75;26.20;;;;;;;;;;2068270;28;20301;-60
2024/01/11 13:04:22;;;;;;;47.60;27.55;;;;;;;;;;2065730;28;20292;-60
2024/01/11 13:05:24;;;;;;;42.67;24.90;;;;;;;;;;2068286;28;20202;-60
2024/01/11 13:06:26;;;;;;;50.60;26.92;;;;;;;;;;2067556;28;20198;-60
2024/01/11 13:07:28;;;;;;;48.55;26.23;;;;;;;;;;2064295;28;20642;-60
2024/01/11 13:08:29;;;;;;;52.15;26.67;;;;;;;;;;2064520;28;20198;-60
2024/01/11 13:09:30;;;;;;;47.55;26.77;;;;;;;;;;2067870;28;20198;-60
2024/01/11 13:10:32;;;;;;;46.20;26.50;;;;;;;;;;2067573;28;20256;-60
2024/01/11 13:11:33;;;;;;;49.88;27.85;;;;;;;;;;2067403;28;20197;-60
2024/01/11 13:12:34;;;;;;;51.97;29.27;;;;;;;;;;2069652;28;20739;-60
2024/01/11 13:13:36;;;;;;;44.03;26.55;;;;;;;;;;2069117;28;20284;-60
2024/01/11 13:14:39;;;;;;;45.28;26.45;;;;;;;;;;2067827;28;20649;-60
2024/01/11 13:15:41;;;;;;;48.90;25.55;;;;;;;;;;2066905;28;20248;-60
2024/01/11 13:16:43;;;;;;;47.15;24.98;;;;;;;;;;2064452;28;20198;-60
2024/01/11 13:17:44;;;;;;;45.03;26.08;;;;;;;;;;2067383;28;20233;-60
2024/01/11 13:18:46;;;;;;;46.80;26.05;;;;;;;;;;2065212;28;20210;-60
2024/01/11 13:19:48;;;;;;;48.75;25.90;;;;;;;;;;2065349;28;20202;-60
2024/01/11 13:20:49;;;;;;;53.67;28.83;;;;;;;;;;2066236;28;20194;-60
2024/01/11 13:21:52;;;;;;;47.83;27.40;;;;;;;;;;2067457;28;20202;-60
2024/01/11 13:23:11;;;;;;;47.53;26.65;;;;;;;;;;2068178;28;20194;-60
2024/01/11 13:24:12;;;;;;;69.13;37.35;;;;;;;;;;2066670;28;20630;-60
2024/01/11 13:25:14;;;;;;;97.95;51.60;;;;;;;;;;2067677;28;20282;-62
2024/01/11 13:26:15;;;;;;;257.52;124.88;;;;;;;;;;2066546;28;20194;-62
2024/01/11 13:27:17;;;;;;;97.18;49.50;;;;;;;;;;2065036;28;20197;-62
2024/01/11 13:28:21;;;;;;;66.38;29.85;;;;;;;;;;2066610;28;20203;-62
2024/01/11 13:29:22;;;;;;;55.05;26.70;;;;;;;;;;2076199;28;20229;-62
2024/01/11 13:30:24;;;;;;;46.38;25.88;;;;;;;;;;2073528;28;20208;-62
2024/01/11 13:31:25;;;;;;;46.80;26.00;;;;;;;;;;2075244;28;20237;-63
2024/01/11 13:32:27;;;;;;;50.53;28.05;;;;;;;;;;2083222;28;20204;-63
2024/01/11 13:33:28;;;;;;;45.45;26.67;;;;;;;;;;2084265;28;20894;-63
2024/01/11 13:34:30;;;;;;;48.08;27.88;;;;;;;;;;2074513;28;20251;-63
2024/01/11 13:35:31;;;;;;;44.47;27.17;;;;;;;;;;2076322;28;20201;-63
2024/01/11 13:36:32;;;;;;;47.03;27.05;;;;;;;;;;2076893;28;20193;-63
2024/01/11 13:37:34;;;;;;;50.13;27.80;;;;;;;;;;2075973;28;20256;-63
2024/01/11 13:38:35;;;;;;;47.45;26.30;;;;;;;;;;2071719;28;20228;-63
2024/01/11 13:39:37;;;;;;;48.78;26.25;;;;;;;;;;2076054;28;20196;-63
2024/01/11 13:40:39;;;;;;;48.90;27.90;;;;;;;;;;2075613;28;20251;-66
2024/01/11 13:41:42;;;;;;;47.40;26.80;;;;;;;;;;2076671;28;20201;-63
2024/01/11 13:42:43;;;;;;;49.10;27.30;;;;;;;;;;2076933;28;20284;-63
2024/01/11 13:43:45;;;;;;;47.15;26.55;;;;;;;;;;2065916;28;20216;-63
2024/01/11 13:44:46;;;;;;;43.88;26.25;;;;;;;;;;2076335;28;20240;-63
2024/01/11 13:45:48;;;;;;;48.42;25.70;;;;;;;;;;2076283;28;20243;-63
2024/01/11 13:46:49;;;;;;;51.15;27.55;;;;;;;;;;2075491;28;20556;-63
2024/01/11 13:47:51;;;;;;;47.28;27.60;;;;;;;;;;2076331;28;20204;-63
2024/01/11 13:48:53;;;;;;;54.95;27.17;;;;;;;;;;2074692;28;20218;-63
2024/01/11 13:49:54;;;;;;;52.45;27.38;;;;;;;;;;2075618;28;20205;-64
2024/01/11 13:50:56;;;;;;;48.53;27.45;;;;;;;;;;2076922;28;20209;-62
2024/01/11 13:51:57;;;;;;;45.60;26.90;;;;;;;;;;2075928;28;20194;-62
2024/01/11 13:53:02;;;;;;;56.15;27.85;;;;;;;;;;2074096;28;20236;-63
2024/01/11 13:54:04;;;;;;;47.15;28.55;;;;;;;;;;2074415;28;20270;-64